Haines, AK

11:40 PM AKDT on March 29, 2015 (GMT -0800)
Haines | | Change Station
CLOSE
Current Station
Airport
Location: Haines,
Elevation: 16 ft
Nearby Weather Stations

Elev 16 ft 59.24 °N, 135.51 °W | Updated 12 minutes ago

Overcast
Overcast
42 °F
Feels Like 36 °F
N
12
Wind Variable Wind from East
Gusts 20 mph

Today
High -- | Low -- °F
--% Chance of Precip.
Yesterday
High -- | Low -- °F
Precip. -- in
6:37 AM 7:37 PM
Waxing Gibbous, 78% visible
Pressure 29.82 in
Visibility 10.0 miles
Clouds Mostly Cloudy 1300 ft
Overcast 8000 ft
Windchill 36 °F
Dew Point 37 °F
Humidity 82%
Rainfall 0.04 in
Snow Depth Not available.
UV 0 out of 12
Pollen Not available.
Air Quality Not available.
Flu Activity Not available.
SPECI PAHN 300728Z AUTO 09010G17KT 10SM BKN013 OVC080 06/03 A2982 RMK AO2 T00560028 TSNO

More Conditions Fewer Conditions

Pressure 29.82 in
Visibility 10.0 miles
Clouds Mostly Cloudy 1300 ft
Overcast 8000 ft
Windchill 36 °F
Dew Point 37 °F
Humidity 82%
Rainfall 0.04 in
Snow Depth Not available.
UV 0 out of 12
Pollen Not available.
Air Quality Not available.
Flu Activity Not available.
SPECI PAHN 300728Z AUTO 09010G17KT 10SM BKN013 OVC080 06/03 A2982 RMK AO2 T00560028 TSNO

More Conditions Fewer Conditions

10-Day Weather Forecast

Almanac

Astronomy

Mar. 29, 2015 Rise Set
Actual Time
Civil Twilight
Nautical Twilight
Astronomical Twilight
Moon
Length of Visible Light
Length of Day
Tomorrow will be .
, % of the Moon is Illuminated

Today's Extremes

State Highs State Lows

Community

WunderPhotos

Upload Photos

1,809,449 photos uploaded!

WunderBlogs® & News

Nearby

Air Quality

  Air Quality AQ Index Pollutant
Not available.

Snow Depth

Station Depth Elevation

Earthquake Activity

City Distance Mag. Time & Date
Minimum magnitude displayed is 2.5.

Coastal Water Temperatures

Place Temperature

Stations

Nearby Weather Stations

Station Location Temp. Windchill Dew Point Humidity Wind Precip. Elev Updated Type